^^
Saratoga-Weather Station Historical Data
Daily Summary for July 30, 2020 Units:  Metric    English   Both
Daily Weekly Monthly Yearly Custom
  High: Low: Average:
Temperature: 14.9 °C 11.2 °C 13.1 °C
Dew Point: 10 °C 8.4 °C 9.2 °C
Humidity: 84% 72% 77%
Wind Speed: 9.7km/h 0km/h 1.6km/h
Wind Gust: 14.5km/h - -
Wind- - West
Pressure: 1012.9 hPa 1012.2 hPa -
Precipitation: 0.0 mm    
Historical Graphs
 
 
Tabular Data for July 30, 2020
Time Temperature Dew Point Pressure Wind Wind Speed Wind Gust Humidity Rainfall Rate (Hourly) solar
00:03 14.9 °C 9.9 °C 1012.9 hPa Calm     72% 0.0 mm 0 W/m2
00:08 14.8 °C 10 °C 1012.9 hPa Calm     73% 0.0 mm 0 W/m2
00:13 14.8 °C 10 °C 1012.9 hPa Calm     73% 0.0 mm 0 W/m2
00:18 14.7 °C 9.9 °C 1012.9 hPa Calm     73% 0.0 mm 0 W/m2
00:23 14.6 °C 10 °C 1012.5 hPa Calm     74% 0.0 mm 0 W/m2
00:28 14.4 °C 9.8 °C 1012.9 hPa West 3.2 km/h 3.2 km/h 74% 0.0 mm 0 W/m2
00:33 14.4 °C 9.6 °C 1012.9 hPa WSW 3.2 km/h 3.2 km/h 73% 0.0 mm 0 W/m2
00:38 14.6 °C 9.6 °C 1012.9 hPa West 3.2 km/h 3.2 km/h 72% 0.0 mm 0 W/m2
00:43 14.6 °C 9.6 °C 1012.9 hPa Calm   1.6 km/h 72% 0.0 mm 0 W/m2
00:48 14.6 °C 9.6 °C 1012.9 hPa Calm   3.2 km/h 72% 0.0 mm 0 W/m2
00:53 14.7 °C 9.7 °C 1012.9 hPa West 1.4 km/h 3.2 km/h 72% 0.0 mm 0 W/m2
00:58 14.6 °C 9.6 °C 1012.9 hPa Calm   3.2 km/h 72% 0.0 mm 0 W/m2
01:03 14.6 °C 9.6 °C 1012.9 hPa Calm   1.6 km/h 72% 0.0 mm 0 W/m2
01:08 14.6 °C 9.8 °C 1012.9 hPa Calm   3.2 km/h 73% 0.0 mm 0 W/m2
01:13 14.5 °C 9.7 °C 1012.9 hPa SE 3.2 km/h 4.8 km/h 73% 0.0 mm 0 W/m2
01:18 14.4 °C 9.6 °C 1012.9 hPa Calm   3.2 km/h 73% 0.0 mm 0 W/m2
01:23 14.3 °C 9.7 °C 1012.9 hPa Calm   1.6 km/h 74% 0.0 mm 0 W/m2
01:28 14.2 °C 9.8 °C 1012.9 hPa Calm   1.6 km/h 75% 0.0 mm 0 W/m2
01:33 14.1 °C 9.7 °C 1012.9 hPa NNW 1.4 km/h 1.6 km/h 75% 0.0 mm 0 W/m2
01:38 13.9 °C 9.7 °C 1012.9 hPa Calm   1.6 km/h 76% 0.0 mm 0 W/m2
01:43 13.8 °C 9.6 °C 1012.9 hPa Calm     76% 0.0 mm 0 W/m2
01:48 13.6 °C 9.6 °C 1012.9 hPa Calm     77% 0.0 mm 0 W/m2
01:53 13.4 °C 9.4 °C 1012.9 hPa Calm   1.6 km/h 77% 0.0 mm 0 W/m2
01:58 13.3 °C 9.5 °C 1012.5 hPa Calm   1.6 km/h 78% 0.0 mm 0 W/m2
02:03 13.2 °C 9.6 °C 1012.5 hPa Calm     79% 0.0 mm 0 W/m2
02:08 13 °C 9.4 °C 1012.5 hPa Calm   1.6 km/h 79% 0.0 mm 0 W/m2
02:13 12.9 °C 9.3 °C 1012.5 hPa Calm   6.4 km/h 79% 0.0 mm 0 W/m2
02:18 12.8 °C 9.2 °C 1012.5 hPa NW 4.7 km/h 4.8 km/h 79% 0.0 mm 0 W/m2
02:23 13 °C 9.3 °C 1012.5 hPa Calm   1.6 km/h 78% 0.0 mm 0 W/m2
02:28 13 °C 9.3 °C 1012.5 hPa WNW 3.2 km/h 3.2 km/h 78% 0.0 mm 0 W/m2
02:33 13.1 °C 9.2 °C 1012.5 hPa WSW 3.2 km/h 9.7 km/h 77% 0.0 mm 0 W/m2
02:38 13.2 °C 9.3 °C 1012.5 hPa NW 1.4 km/h 6.4 km/h 77% 0.0 mm 0 W/m2
02:43 13.2 °C 9.1 °C 1012.5 hPa West 1.4 km/h 9.7 km/h 76% 0.0 mm 0 W/m2
02:48 13.3 °C 9 °C 1012.5 hPa SW 4.7 km/h 9.7 km/h 75% 0.0 mm 0 W/m2
02:53 13.3 °C 8.8 °C 1012.5 hPa SW 3.2 km/h 6.4 km/h 74% 0.0 mm 0 W/m2
02:58 13.4 °C 8.9 °C 1012.5 hPa West 4.7 km/h 6.4 km/h 74% 0.0 mm 0 W/m2
03:03 13.4 °C 8.9 °C 1012.5 hPa WNW 1.4 km/h 3.2 km/h 74% 0.0 mm 0 W/m2
03:08 13.4 °C 8.7 °C 1012.5 hPa NW 1.4 km/h 4.8 km/h 73% 0.0 mm 0 W/m2
03:13 13.4 °C 8.7 °C 1012.5 hPa Calm   4.8 km/h 73% 0.0 mm 0 W/m2
03:18 13.4 °C 8.7 °C 1012.5 hPa Calm   3.2 km/h 73% 0.0 mm 0 W/m2
03:23 13.3 °C 8.6 °C 1012.5 hPa WNW 1.4 km/h 4.8 km/h 73% 0.0 mm 0 W/m2
03:28 13.3 °C 8.6 °C 1012.5 hPa WSW 3.2 km/h 4.8 km/h 73% 0.0 mm 0 W/m2
03:33 13.3 °C 8.8 °C 1012.5 hPa West 1.4 km/h 3.2 km/h 74% 0.0 mm 0 W/m2
03:38 13.3 °C 8.8 °C 1012.5 hPa Calm   3.2 km/h 74% 0.0 mm 0 W/m2
03:43 13.2 °C 8.7 °C 1012.5 hPa WNW 3.2 km/h 4.8 km/h 74% 0.0 mm 0 W/m2
03:48 13.2 °C 8.7 °C 1012.5 hPa Calm   1.6 km/h 74% 0.0 mm 0 W/m2
03:53 13.1 °C 8.6 °C 1012.5 hPa ESE 1.4 km/h 3.2 km/h 74% 0.0 mm 0 W/m2
03:58 13.1 °C 8.8 °C 1012.5 hPa WNW 3.2 km/h 9.7 km/h 75% 0.0 mm 0 W/m2
04:03 13.1 °C 8.8 °C 1012.5 hPa West 1.4 km/h 4.8 km/h 75% 0.0 mm 0 W/m2
04:08 13 °C 8.7 °C 1012.5 hPa West 1.4 km/h 3.2 km/h 75% 0.0 mm 0 W/m2
04:13 12.9 °C 8.8 °C 1012.5 hPa NW 1.4 km/h 6.4 km/h 76% 0.0 mm 0 W/m2
04:18 12.8 °C 8.7 °C 1012.5 hPa Calm   1.6 km/h 76% 0.0 mm 0 W/m2
04:23 12.6 °C 8.7 °C 1012.5 hPa Calm   6.4 km/h 77% 0.0 mm 0 W/m2
04:29 12.4 °C 8.5 °C 1012.5 hPa Calm     77% 0.0 mm 0 W/m2
04:34 12.3 °C 8.6 °C 1012.5 hPa Calm   1.6 km/h 78% 0.0 mm 0 W/m2
04:39 12.1 °C 8.6 °C 1012.5 hPa Calm     79% 0.0 mm 0 W/m2
04:44 11.9 °C 8.6 °C 1012.5 hPa Calm     80% 0.0 mm 0 W/m2
04:49 11.7 °C 8.4 °C 1012.5 hPa Calm     80% 0.0 mm 0 W/m2
04:54 11.6 °C 8.5 °C 1012.5 hPa Calm     81% 0.0 mm 0 W/m2
04:59 11.4 °C 8.4 °C 1012.5 hPa Calm     82% 0.0 mm 0 W/m2
05:04 11.3 °C 8.5 °C 1012.5 hPa Calm     83% 0.0 mm 0 W/m2
05:09 11.2 °C 8.4 °C 1012.5 hPa Calm     83% 0.0 mm 0 W/m2
05:14 11.2 °C 8.6 °C 1012.2 hPa Calm   1.6 km/h 84% 0.0 mm 0 W/m2
05:19 11.2 °C 8.6 °C 1012.2 hPa Calm   4.8 km/h 84% 0.0 mm 0 W/m2
05:24 11.4 °C 8.8 °C 1012.2 hPa SW 1.4 km/h 6.4 km/h 84% 0.0 mm 0 W/m2
05:29 11.7 °C 8.9 °C 1012.2 hPa WSW 3.2 km/h 4.8 km/h 83% 0.0 mm 0 W/m2
05:34 11.8 °C 8.8 °C 1012.2 hPa West 3.2 km/h 6.4 km/h 82% 0.0 mm 0 W/m2
05:39 11.9 °C 8.9 °C 1012.5 hPa SW 9.7 km/h 9.7 km/h 82% 0.0 mm 5 W/m2
05:44 12 °C 9 °C 1012.5 hPa West 4.7 km/h 6.4 km/h 82% 0.0 mm 5 W/m2
05:49 12.1 °C 8.9 °C 1012.5 hPa WSW 3.2 km/h 4.8 km/h 81% 0.0 mm 7 W/m2
05:54 12.2 °C 9 °C 1012.5 hPa West 4.7 km/h 6.4 km/h 81% 0.0 mm 7 W/m2
05:59 12.3 °C 9.1 °C 1012.5 hPa West 1.4 km/h 11.3 km/h 81% 0.0 mm 9 W/m2
06:04 12.3 °C 9.1 °C 1012.5 hPa NW 1.4 km/h 3.2 km/h 81% 0.0 mm 11 W/m2
06:09 12.3 °C 9.1 °C 1012.9 hPa WSW 3.2 km/h 6.4 km/h 81% 0.0 mm 16 W/m2
06:14 12.3 °C 9.1 °C 1012.5 hPa NW 1.4 km/h 4.8 km/h 81% 0.0 mm 19 W/m2
06:19 12.3 °C 9.1 °C 1012.5 hPa West 3.2 km/h 12.9 km/h 81% 0.0 mm 21 W/m2
06:24 12.4 °C 9.2 °C 1012.5 hPa WSW 4.7 km/h 4.8 km/h 81% 0.0 mm 23 W/m2
06:29 12.5 °C 9.3 °C 1012.5 hPa WSW 1.4 km/h 4.8 km/h 81% 0.0 mm 25 W/m2
06:35 12.6 °C 9.4 °C 1012.5 hPa West 3.2 km/h 9.7 km/h 81% 0.0 mm 26 W/m2
06:40 12.7 °C 9.3 °C 1012.5 hPa WSW 1.4 km/h 4.8 km/h 80% 0.0 mm 28 W/m2
06:45 12.8 °C 9.4 °C 1012.5 hPa West 4.7 km/h 4.8 km/h 80% 0.0 mm 28 W/m2
06:50 12.9 °C 9.5 °C 1012.5 hPa WSW 4.7 km/h 6.4 km/h 80% 0.0 mm 30 W/m2
06:55 13 °C 9.6 °C 1012.5 hPa WNW 1.4 km/h 6.4 km/h 80% 0.0 mm 32 W/m2
07:00 13.2 °C 9.8 °C 1012.5 hPa WNW 3.2 km/h 4.8 km/h 80% 0.0 mm 33 W/m2
07:05 13.3 °C 9.7 °C 1012.5 hPa South 3.2 km/h 14.5 km/h 79% 0.0 mm 40 W/m2
07:10 13.3 °C 9.7 °C 1012.5 hPa NW 4.7 km/h 4.8 km/h 79% 0.0 mm 83 W/m2
07:15 13.5 °C 9.9 °C 1012.5 hPa WNW 4.7 km/h 14.5 km/h 79% 0.0 mm 72 W/m2
07:20 13.6 °C 9.8 °C 1012.5 hPa NE 1.4 km/h 3.2 km/h 78% 0.0 mm 77 W/m2
07:25 13.7 °C 9.9 °C 1012.5 hPa West 3.2 km/h 8 km/h 78% 0.0 mm 81 W/m2
07:30 13.7 °C 9.9 °C 1012.5 hPa East 1.4 km/h 11.3 km/h 78% 0.0 mm 95 W/m2
07:35 13.7 °C 9.9 °C 1012.5 hPa West 1.4 km/h 4.8 km/h 78% 0.0 mm 81 W/m2
Juneau County Weather
Compliments of Weather Underground - 4 mb